createdAt,value
2022-10-22T00:09:24.408Z,23.80
2022-10-22T00:24:24.501Z,22.90
2022-10-22T00:39:24.606Z,22.40
2022-10-22T00:54:24.700Z,23.00
2022-10-22T01:09:25.270Z,24.60
2022-10-22T01:24:24.853Z,24.70
2022-10-22T01:39:25.519Z,26.60
2022-10-22T01:54:27.855Z,25.10
2022-10-22T02:09:28.760Z,24.30
2022-10-22T02:24:32.449Z,25.00
2022-10-22T02:39:34.382Z,22.10
2022-10-22T02:54:34.878Z,21.60
2022-10-22T03:09:35.004Z,24.90
2022-10-22T03:24:36.893Z,24.50
2022-10-22T03:39:37.740Z,21.10
2022-10-22T03:54:40.160Z,24.30
2022-10-22T04:09:40.705Z,22.90
2022-10-22T04:24:40.889Z,22.50
2022-10-22T04:39:41.049Z,21.30
2022-10-22T04:54:41.529Z,24.80
2022-10-22T05:09:41.637Z,23.50
2022-10-22T05:24:41.285Z,22.50
2022-10-22T05:39:41.384Z,23.00
2022-10-22T05:54:42.014Z,19.80
2022-10-22T06:09:42.587Z,27.60
2022-10-22T06:24:45.083Z,25.50
2022-10-22T06:39:47.628Z,27.00
2022-10-22T06:54:48.264Z,28.10
2022-10-22T07:09:48.821Z,29.40
2022-10-22T07:24:50.145Z,26.80
2022-10-22T07:39:50.274Z,25.30
2022-10-22T07:54:49.863Z,25.00
2022-10-22T08:09:51.376Z,25.10
2022-10-22T08:24:51.985Z,24.50
2022-10-22T08:39:53.359Z,22.00
2022-10-22T08:54:52.969Z,17.10
2022-10-22T09:09:53.589Z,17.80
2022-10-22T09:24:55.433Z,20.40
2022-10-22T09:39:55.506Z,19.20
2022-10-22T09:54:55.650Z,23.50
2022-10-22T10:09:55.779Z,23.70
2022-10-22T10:24:55.960Z,21.60
2022-10-22T10:39:56.058Z,20.50
2022-10-22T10:54:56.680Z,18.90
2022-10-22T11:09:57.308Z,21.80
2022-10-22T11:24:57.910Z,21.10
2022-10-22T11:39:59.008Z,18.50
2022-10-22T11:55:00.157Z,17.70
2022-10-22T12:10:01.230Z,12.90
2022-10-22T12:25:02.355Z,10.70
2022-10-22T12:40:03.393Z,7.00
2022-10-22T12:55:03.085Z,5.00
2022-10-22T13:10:03.600Z,3.70
2022-10-22T13:25:03.711Z,3.00
2022-10-22T13:40:05.657Z,2.40
2022-10-22T13:55:08.416Z,2.10
2022-10-22T14:10:08.585Z,2.70
2022-10-22T14:25:08.681Z,2.40
2022-10-22T14:40:08.759Z,2.70
2022-10-22T14:55:08.921Z,3.10
2022-10-22T15:10:09.026Z,2.90
2022-10-22T15:25:09.172Z,3.00
2022-10-22T15:40:10.480Z,3.00
2022-10-22T15:55:10.837Z,3.30
2022-10-22T16:10:10.697Z,12.70
2022-10-22T16:25:12.178Z,9.70
2022-10-22T16:40:12.276Z,9.10
2022-10-22T16:55:13.622Z,12.60
2022-10-22T17:10:15.089Z,12.00
2022-10-22T17:25:15.122Z,18.50
2022-10-22T17:40:15.223Z,31.70
2022-10-22T17:55:15.317Z,19.20
2022-10-22T18:10:16.704Z,31.40
2022-10-22T18:25:17.091Z,31.80
2022-10-22T18:40:18.397Z,21.50
2022-10-22T18:55:19.849Z,17.10
2022-10-22T19:10:21.163Z,16.10
2022-10-22T19:25:22.570Z,16.10
2022-10-22T19:55:23.787Z,7.80
2022-10-22T20:10:23.905Z,6.70
2022-10-22T20:25:24.138Z,6.20
2022-10-22T20:40:24.865Z,5.50
2022-10-22T20:55:25.315Z,5.80
2022-10-22T21:10:30.202Z,5.20
2022-10-22T21:25:41.979Z,5.30
2022-10-22T21:40:43.958Z,5.50
2022-10-22T21:55:44.010Z,5.30
2022-10-22T22:10:44.988Z,5.50
2022-10-22T22:25:45.002Z,6.00
2022-10-22T22:40:46.425Z,6.00
2022-10-22T22:55:47.795Z,6.70
2022-10-22T23:10:47.963Z,6.90
2022-10-22T23:25:48.150Z,7.50
2022-10-22T23:40:49.484Z,9.00
2022-10-22T23:55:50.818Z,11.50
